Strona główna
METAR-TAF:

METAR-TAF

Lotnisko :

Port lotniczy Dżudda

Dżudda, Arabia Saudyjska

Szerokość geograficzna: 21-42N, Długość geograficzna: 039-11E, wysokość: 15 m

Aktualna obserwacja pogody

Raport powstał 1 godzina i 5 minut temu, godzina 15:00 UTC
Wiatr 6 kt od południowo-południowy zachód
Temperatura 33°C
Wilgotność 63%
Ciśnienie 1008 hPa
Widzialność 10 km lub więcej
Brak chmur poniżej 1500 m i brak chmur cumulonimbus

METAR: OEJN 231500Z 20006KT CAVOK 33/25 Q1008 NOSIG

czas: 19:05 (16:05 UTC)

Prognoza

Raport powstał 5 godziny i 5 minut temu, godzina 11:00 UTC
Prognoza ważna od 23 godzina 12 UTC do 24 godzina 18 UTC
Wiatr 10 kt od południowy zachód
Widzialność: 7000 m
Mało chmury na wysokości 4000 ft
Stopniowe zmiany
od 23 godzina 14 UTC do 23 godzina 16 UTC
Wiatr 8 kt od północno-północny zachód

TAF: OEJN 231100Z 2312/2418 23010KT 7000 FEW040 BECMG 2314/2316 34008KT

Obserwacja i prognoza pogody dla ponad 4000 lotnisk (raport METAR i TAF).

Dostępne stacje oznaczono żółtymi i czerwonymi punktami na mapie.

Najedź kursorem aby zobaczyć nazwę stacji.

Kliknij aby zobaczyć obserwacje i prognozy pogody.

Aby zmienić mapę: kliknij na zielony przycisk z czarnym krzyżykiem, aby powiększyć; na zielony przycisk z myślnikiem, aby pomniejszyć; na zielone strzałki, aby przejść do map sąsiednich.


METAR-TAF: